createdAt,value
2023-01-06T00:01:40.232Z,40.65
2023-01-06T00:04:08.293Z,38.80
2023-01-06T00:06:36.477Z,32.05
2023-01-06T00:09:05.605Z,31.58
2023-01-06T00:14:02.135Z,35.28
2023-01-06T00:16:31.023Z,34.88
2023-01-06T00:19:00.727Z,27.88
2023-01-06T00:21:29.100Z,32.13
2023-01-06T00:23:57.475Z,29.73
2023-01-06T00:26:25.515Z,33.53
2023-01-06T00:28:55.693Z,34.65
2023-01-06T00:31:23.926Z,35.33
2023-01-06T00:33:52.195Z,38.50
2023-01-06T00:36:21.949Z,31.15
2023-01-06T00:38:51.490Z,20.38
2023-01-06T00:41:40.123Z,13.48
2023-01-06T00:44:08.823Z,14.55
2023-01-06T00:46:37.579Z,12.68
2023-01-06T00:49:07.352Z,10.85
2023-01-06T00:51:37.650Z,10.32
2023-01-06T00:54:08.355Z,10.32
2023-01-06T00:56:41.170Z,9.02
2023-01-06T00:59:10.236Z,11.07
2023-01-06T01:01:39.046Z,10.15
2023-01-06T01:04:08.153Z,11.65
2023-01-06T01:06:37.004Z,8.68
2023-01-06T01:09:07.072Z,8.88
2023-01-06T01:11:54.770Z,10.32
2023-01-06T01:14:22.954Z,9.77
2023-01-06T01:16:51.076Z,8.48
2023-01-06T01:19:20.007Z,8.50
2023-01-06T01:21:48.154Z,6.82
2023-01-06T01:24:16.491Z,9.15
2023-01-06T01:26:44.677Z,7.90
2023-01-06T01:29:14.776Z,8.23
2023-01-06T01:31:43.049Z,8.18
2023-01-06T01:34:12.698Z,15.50
2023-01-06T01:36:42.718Z,10.15
2023-01-06T01:39:12.768Z,7.88
2023-01-06T01:41:40.985Z,8.68
2023-01-06T01:45:06.146Z,6.20
2023-01-06T01:47:37.181Z,7.43
2023-01-06T01:50:30.076Z,9.43
2023-01-06T01:53:06.023Z,6.13
2023-01-06T01:55:36.413Z,7.10
2023-01-06T01:58:13.218Z,6.97
2023-01-06T02:00:43.829Z,7.25
2023-01-06T02:03:14.560Z,6.28
2023-01-06T02:05:48.060Z,6.97
2023-01-06T02:08:31.591Z,6.57
2023-01-06T02:10:59.784Z,6.53
2023-01-06T02:13:28.169Z,5.88
2023-01-06T02:16:15.426Z,6.93
2023-01-06T02:19:22.533Z,6.63
2023-01-06T02:22:21.766Z,6.47
2023-01-06T02:24:49.837Z,4.82
2023-01-06T02:27:50.093Z,5.40
2023-01-06T02:30:46.614Z,7.20
2023-01-06T02:33:25.340Z,6.93
2023-01-06T02:36:36.266Z,5.65
2023-01-06T02:39:26.719Z,5.43
2023-01-06T02:42:42.806Z,7.40
2023-01-06T02:45:23.131Z,7.18
2023-01-06T02:48:34.022Z,4.30
2023-01-06T02:51:10.574Z,5.90
2023-01-06T02:53:56.322Z,5.82
2023-01-06T03:00:35.058Z,3.60
2023-01-06T03:03:09.938Z,4.80
2023-01-06T03:05:39.746Z,5.05
2023-01-06T03:08:14.981Z,5.50
2023-01-06T03:10:45.079Z,5.22
2023-01-06T03:13:27.035Z,9.80
2023-01-06T03:15:59.158Z,3.88
2023-01-06T03:18:27.811Z,7.05
2023-01-06T03:20:59.808Z,11.38
2023-01-06T03:23:27.989Z,9.20
2023-01-06T03:25:56.364Z,8.70
2023-01-06T03:28:26.996Z,9.80
2023-01-06T03:31:24.444Z,5.18
2023-01-06T03:34:34.026Z,22.52
2023-01-06T03:37:27.927Z,5.85
2023-01-06T03:40:29.515Z,4.40
2023-01-06T03:43:20.019Z,13.40
2023-01-06T03:46:14.356Z,5.07
2023-01-06T03:51:34.940Z,4.32
2023-01-06T03:54:18.245Z,7.97
2023-01-06T03:56:51.268Z,6.50
2023-01-06T03:59:22.580Z,5.20
2023-01-06T04:01:52.992Z,8.65
2023-01-06T04:04:22.300Z,6.85
2023-01-06T04:06:50.554Z,5.75
2023-01-06T04:09:18.739Z,5.10
2023-01-06T04:12:05.595Z,4.50
2023-01-06T04:14:37.899Z,5.07
2023-01-06T04:17:06.989Z,4.88
2023-01-06T04:22:04.204Z,12.05
2023-01-06T04:24:33.906Z,79.53
2023-01-06T04:27:02.107Z,42.13
2023-01-06T04:29:30.301Z,29.67
2023-01-06T04:31:59.478Z,29.27
2023-01-06T04:34:27.460Z,37.10
2023-01-06T04:36:56.304Z,33.00
2023-01-06T04:39:24.315Z,28.23
2023-01-06T04:41:52.289Z,11.85
2023-01-06T04:44:20.199Z,13.65
2023-01-06T04:46:48.371Z,8.73
2023-01-06T04:49:16.502Z,8.40
2023-01-06T04:51:44.386Z,8.02
2023-01-06T04:54:12.945Z,5.28
2023-01-06T04:56:41.123Z,11.23
2023-01-06T04:59:09.173Z,11.50
2023-01-06T05:01:37.864Z,15.63
2023-01-06T05:04:08.496Z,14.35
2023-01-06T05:06:36.743Z,10.45
2023-01-06T05:09:04.663Z,8.90
2023-01-06T05:11:32.549Z,8.55
2023-01-06T05:14:00.626Z,8.15
2023-01-06T05:16:31.024Z,8.77
2023-01-06T05:18:59.494Z,7.40
2023-01-06T05:21:32.270Z,4.70
2023-01-06T05:24:01.141Z,10.32
2023-01-06T05:26:29.377Z,9.10
2023-01-06T05:28:57.513Z,8.80
2023-01-06T05:31:25.554Z,5.55
2023-01-06T05:33:53.617Z,7.18
2023-01-06T05:36:21.569Z,6.68
2023-01-06T05:38:54.359Z,11.77
2023-01-06T05:41:22.332Z,5.45
2023-01-06T05:43:50.256Z,6.45
2023-01-06T05:46:18.541Z,9.95
2023-01-06T05:48:46.829Z,6.05
2023-01-06T05:51:16.382Z,7.15
2023-01-06T05:53:46.574Z,5.15
2023-01-06T05:56:19.367Z,6.72
2023-01-06T05:58:49.711Z,3.80
2023-01-06T06:01:26.164Z,6.40
2023-01-06T06:03:55.460Z,4.20
2023-01-06T06:06:25.798Z,12.23
2023-01-06T06:08:53.833Z,4.55
2023-01-06T06:11:24.832Z,5.63
2023-01-06T06:13:55.475Z,27.88
2023-01-06T06:16:26.008Z,11.95
2023-01-06T06:18:56.364Z,12.18
2023-01-06T06:21:27.566Z,5.72
2023-01-06T06:23:57.408Z,8.77
2023-01-06T06:26:26.000Z,4.88
2023-01-06T06:28:54.409Z,11.57
2023-01-06T06:31:27.531Z,8.50
2023-01-06T06:33:58.081Z,6.25
2023-01-06T06:36:26.653Z,7.90
2023-01-06T06:38:55.357Z,6.63
2023-01-06T06:41:25.089Z,7.47
2023-01-06T06:43:53.287Z,7.13
2023-01-06T06:46:21.608Z,5.93
2023-01-06T06:48:50.336Z,6.82
2023-01-06T06:51:21.365Z,5.78
2023-01-06T06:53:50.347Z,7.68
2023-01-06T06:58:46.984Z,5.22
2023-01-06T07:01:17.843Z,5.97
2023-01-06T07:03:46.389Z,10.35
2023-01-06T07:06:17.967Z,5.50
2023-01-06T07:08:48.655Z,4.97
2023-01-06T07:11:17.042Z,7.35
2023-01-06T07:13:45.015Z,6.57
2023-01-06T07:16:13.436Z,9.38
2023-01-06T07:18:41.461Z,3.63
2023-01-06T07:21:09.834Z,4.30
2023-01-06T07:23:38.020Z,4.13
2023-01-06T07:26:06.210Z,4.03
2023-01-06T07:28:34.277Z,7.03
2023-01-06T07:31:02.463Z,5.18
2023-01-06T07:33:31.168Z,3.67
2023-01-06T07:35:59.284Z,7.72
2023-01-06T07:38:27.624Z,6.25
2023-01-06T07:41:00.626Z,4.30
2023-01-06T07:43:29.625Z,4.57
2023-01-06T07:48:25.465Z,4.05
2023-01-06T07:50:53.422Z,5.55
2023-01-06T07:53:21.465Z,4.28
2023-01-06T07:55:54.038Z,3.80
2023-01-06T07:58:24.317Z,4.78
2023-01-06T08:00:52.937Z,5.53
2023-01-06T08:03:21.069Z,4.55
2023-01-06T08:05:49.245Z,5.85
2023-01-06T08:08:17.374Z,7.63
2023-01-06T08:10:45.707Z,6.85
2023-01-06T08:13:13.786Z,5.78
2023-01-06T08:15:42.313Z,4.72
2023-01-06T08:18:10.376Z,4.00
2023-01-06T08:20:38.367Z,10.93
2023-01-06T08:23:06.530Z,12.70
2023-01-06T08:25:34.635Z,8.20
2023-01-06T08:28:03.032Z,6.38
2023-01-06T08:30:31.106Z,7.88
2023-01-06T08:33:00.680Z,17.90
2023-01-06T08:35:28.712Z,16.45
2023-01-06T08:37:56.850Z,10.75
2023-01-06T08:40:24.957Z,7.03
2023-01-06T08:42:53.043Z,4.63
2023-01-06T08:45:20.975Z,7.95
2023-01-06T08:47:49.070Z,8.98
2023-01-06T08:50:17.397Z,3.75
2023-01-06T08:52:45.593Z,4.55
2023-01-06T08:55:13.875Z,4.40
2023-01-06T08:57:41.829Z,4.47
2023-01-06T09:00:10.478Z,5.07
2023-01-06T09:02:38.594Z,5.10
2023-01-06T09:05:07.191Z,5.07
2023-01-06T09:07:35.176Z,4.60
2023-01-06T09:10:03.432Z,3.28
2023-01-06T09:12:32.006Z,3.15
2023-01-06T09:15:00.338Z,3.13
2023-01-06T09:17:28.386Z,3.92
2023-01-06T09:19:56.318Z,5.18
2023-01-06T09:22:24.245Z,4.30
2023-01-06T09:24:52.363Z,7.13
2023-01-06T09:27:21.628Z,4.72
2023-01-06T09:29:50.776Z,4.97
2023-01-06T09:32:18.805Z,4.35
2023-01-06T09:34:46.984Z,4.15
2023-01-06T09:37:14.909Z,3.67
2023-01-06T09:39:42.952Z,6.55
2023-01-06T09:42:38.633Z,3.95
2023-01-06T09:45:12.727Z,4.57
2023-01-06T09:47:56.207Z,3.53
2023-01-06T09:50:41.608Z,4.80
2023-01-06T09:53:22.587Z,8.18
2023-01-06T09:56:01.012Z,8.18
2023-01-06T09:58:34.358Z,19.15
2023-01-06T10:01:08.487Z,6.22
2023-01-06T10:03:36.661Z,10.85
2023-01-06T10:06:19.367Z,10.32
2023-01-06T10:09:08.583Z,15.65
2023-01-06T10:11:54.853Z,9.73
2023-01-06T10:14:28.717Z,73.85
2023-01-06T10:17:23.945Z,13.18
2023-01-06T10:20:27.053Z,8.68
2023-01-06T10:23:17.852Z,4.80
2023-01-06T10:26:00.479Z,5.85
2023-01-06T10:28:54.135Z,4.47
2023-01-06T10:31:30.631Z,4.72
2023-01-06T10:33:59.335Z,8.20
2023-01-06T10:36:41.684Z,4.18
2023-01-06T10:39:23.961Z,3.55
2023-01-06T10:42:25.236Z,4.18
2023-01-06T10:44:53.215Z,4.10
2023-01-06T10:47:29.020Z,11.65
2023-01-06T10:49:57.959Z,5.82
2023-01-06T10:52:27.806Z,13.93
2023-01-06T10:55:03.149Z,16.67
2023-01-06T10:57:36.876Z,12.95
2023-01-06T11:00:24.336Z,10.13
2023-01-06T11:03:14.272Z,4.18
2023-01-06T11:05:46.273Z,4.88
2023-01-06T11:08:16.207Z,5.63
2023-01-06T11:10:52.235Z,3.75
2023-01-06T11:13:39.471Z,7.30
2023-01-06T11:16:35.943Z,3.10
2023-01-06T11:19:08.913Z,6.45
2023-01-06T11:21:42.571Z,38.53
2023-01-06T11:24:25.392Z,4.93
2023-01-06T11:27:16.433Z,194.98
2023-01-06T11:29:44.411Z,4.82
2023-01-06T11:32:20.385Z,4.78
2023-01-06T11:34:59.303Z,5.07
2023-01-06T11:37:39.569Z,3.42
2023-01-06T11:40:27.373Z,4.35
2023-01-06T11:42:58.845Z,4.70
2023-01-06T11:45:32.611Z,5.00
2023-01-06T11:48:03.076Z,4.07
2023-01-06T11:50:31.993Z,5.07
2023-01-06T11:53:15.590Z,10.95
2023-01-06T11:55:56.789Z,13.10
2023-01-06T11:58:51.248Z,8.45
2023-01-06T12:01:41.794Z,11.13
2023-01-06T12:04:30.288Z,9.43
2023-01-06T12:07:15.694Z,5.55
2023-01-06T12:09:46.455Z,9.02
2023-01-06T12:12:21.464Z,9.05
2023-01-06T12:14:49.395Z,7.75
2023-01-06T12:17:54.112Z,9.10
2023-01-06T12:20:29.167Z,9.63
2023-01-06T12:23:12.947Z,11.52
2023-01-06T12:26:02.548Z,12.05
2023-01-06T12:28:37.083Z,9.60
2023-01-06T12:31:10.706Z,7.97
2023-01-06T12:33:52.642Z,10.32
2023-01-06T12:36:35.827Z,7.47
2023-01-06T12:39:15.007Z,7.15
2023-01-06T12:41:56.512Z,7.70
2023-01-06T12:44:42.091Z,6.10
2023-01-06T12:47:28.785Z,8.02
2023-01-06T12:50:03.053Z,6.90
2023-01-06T12:52:38.239Z,4.88
2023-01-06T12:55:07.586Z,9.23
2023-01-06T12:57:50.181Z,5.72
2023-01-06T13:00:40.926Z,6.75
2023-01-06T13:03:21.090Z,6.00
2023-01-06T13:06:16.394Z,5.88
2023-01-06T13:09:14.508Z,12.18
2023-01-06T13:12:09.918Z,4.25
2023-01-06T13:15:17.423Z,8.75
2023-01-06T13:18:06.363Z,5.22
2023-01-06T13:21:03.559Z,4.03
2023-01-06T13:23:56.519Z,7.53
2023-01-06T13:27:00.662Z,10.93
2023-01-06T13:29:40.067Z,5.35
2023-01-06T13:32:25.527Z,8.95
2023-01-06T13:35:21.004Z,61.75
2023-01-06T13:38:15.766Z,8.98
2023-01-06T13:40:45.495Z,5.90
2023-01-06T13:43:25.228Z,5.50
2023-01-06T13:46:04.256Z,7.05
2023-01-06T13:48:38.928Z,5.68
2023-01-06T13:51:10.665Z,9.85
2023-01-06T13:53:44.696Z,5.30
2023-01-06T13:56:12.828Z,19.38
2023-01-06T13:58:48.667Z,18.23
2023-01-06T14:01:19.513Z,11.65
2023-01-06T14:03:51.940Z,7.57
2023-01-06T14:06:23.312Z,8.30
2023-01-06T14:09:00.328Z,6.40
2023-01-06T14:11:35.381Z,4.38
2023-01-06T14:14:27.204Z,54.22
2023-01-06T14:16:57.744Z,7.55
2023-01-06T14:19:35.290Z,20.05
2023-01-06T14:22:34.213Z,8.60
2023-01-06T14:25:05.698Z,10.48
2023-01-06T14:27:48.940Z,11.00
2023-01-06T14:30:31.847Z,6.53
2023-01-06T14:33:32.261Z,4.72
2023-01-06T14:36:13.806Z,5.63
2023-01-06T14:38:55.725Z,6.82
2023-01-06T14:41:35.722Z,5.28
2023-01-06T14:44:31.519Z,5.38
2023-01-06T14:47:13.400Z,10.85
2023-01-06T14:49:56.665Z,19.35
2023-01-06T14:52:39.013Z,9.23
2023-01-06T14:55:12.274Z,10.70
2023-01-06T14:57:40.393Z,6.38
2023-01-06T15:00:27.437Z,5.38
2023-01-06T15:02:57.735Z,6.70
2023-01-06T15:05:32.535Z,14.00
2023-01-06T15:08:12.498Z,28.40
2023-01-06T15:10:49.799Z,22.33
2023-01-06T15:13:36.561Z,14.93
2023-01-06T15:16:25.992Z,36.67
2023-01-06T15:18:55.440Z,8.05
2023-01-06T15:21:24.152Z,44.40
2023-01-06T15:23:55.551Z,22.35
2023-01-06T15:26:27.384Z,12.32
2023-01-06T15:28:58.808Z,12.40
2023-01-06T15:31:28.713Z,7.03
2023-01-06T15:33:58.464Z,8.32
2023-01-06T15:36:27.071Z,11.05
2023-01-06T15:39:00.605Z,10.50
2023-01-06T15:41:33.713Z,10.25
2023-01-06T15:44:03.846Z,10.65
2023-01-06T15:46:41.762Z,8.90
2023-01-06T15:49:23.701Z,13.60
2023-01-06T15:51:58.012Z,12.85
2023-01-06T15:54:29.224Z,67.80
2023-01-06T15:57:11.555Z,16.42
2023-01-06T15:59:58.014Z,11.82
2023-01-06T16:02:30.957Z,31.23
2023-01-06T16:05:02.829Z,10.75
2023-01-06T16:07:41.417Z,15.50
2023-01-06T16:10:35.861Z,7.35
2023-01-06T16:13:18.251Z,8.63
2023-01-06T16:16:02.787Z,6.43
2023-01-06T16:18:36.599Z,6.13
2023-01-06T16:21:25.508Z,24.13
2023-01-06T16:23:55.733Z,18.02
2023-01-06T16:26:26.971Z,16.52
2023-01-06T16:28:58.268Z,14.63
2023-01-06T16:31:35.262Z,22.05
2023-01-06T16:34:23.053Z,12.25
2023-01-06T16:36:54.748Z,8.30
2023-01-06T16:39:23.491Z,10.60
2023-01-06T16:42:00.510Z,12.55
2023-01-06T16:44:31.266Z,17.13
2023-01-06T16:47:01.441Z,20.42
2023-01-06T16:49:31.014Z,13.48
2023-01-06T16:52:00.054Z,61.63
2023-01-06T16:54:29.422Z,47.33
2023-01-06T16:56:57.955Z,76.05
2023-01-06T16:59:36.387Z,39.80
2023-01-06T17:02:16.722Z,95.95
2023-01-06T17:04:46.957Z,43.03
2023-01-06T17:07:15.851Z,28.15
2023-01-06T17:09:44.012Z,50.60
2023-01-06T17:12:38.274Z,32.85
2023-01-06T17:15:10.388Z,19.40
2023-01-06T17:17:40.704Z,18.77
2023-01-06T17:20:13.344Z,25.17
2023-01-06T17:22:41.505Z,56.55
2023-01-06T17:25:13.700Z,74.82
2023-01-06T17:27:45.923Z,39.33
2023-01-06T17:30:20.158Z,38.97
2023-01-06T17:32:48.947Z,47.83
2023-01-06T17:35:21.460Z,93.53
2023-01-06T17:37:50.370Z,43.58
2023-01-06T17:40:22.412Z,76.50
2023-01-06T17:43:04.402Z,41.53
2023-01-06T17:45:34.399Z,41.75
2023-01-06T17:48:03.278Z,60.92
2023-01-06T17:50:35.471Z,28.13
2023-01-06T17:53:36.371Z,34.78
2023-01-06T17:56:10.208Z,16.35
2023-01-06T17:58:41.570Z,34.58
2023-01-06T18:01:17.274Z,63.50
2023-01-06T18:03:47.115Z,54.92
2023-01-06T18:06:26.790Z,47.75
2023-01-06T18:09:06.164Z,47.80
2023-01-06T18:11:44.374Z,31.00
2023-01-06T18:14:23.368Z,29.00
2023-01-06T18:16:57.755Z,47.08
2023-01-06T18:19:36.094Z,39.97
2023-01-06T18:22:25.451Z,43.33
2023-01-06T18:25:00.742Z,51.90
2023-01-06T18:30:15.263Z,98.05
2023-01-06T18:32:44.478Z,80.10
2023-01-06T18:35:18.987Z,111.38
2023-01-06T18:37:48.479Z,42.00
2023-01-06T18:40:25.839Z,41.53
2023-01-06T18:42:55.506Z,53.28
2023-01-06T18:45:31.785Z,47.08
2023-01-06T18:48:11.623Z,66.10
2023-01-06T18:50:42.804Z,66.18
2023-01-06T18:53:22.642Z,62.80
2023-01-06T18:55:59.203Z,62.08
2023-01-06T18:58:47.930Z,59.47
2023-01-06T19:01:26.650Z,59.30
2023-01-06T19:04:16.304Z,58.20
2023-01-06T19:07:11.785Z,93.10
2023-01-06T19:09:44.283Z,65.10
2023-01-06T19:12:40.672Z,62.50
2023-01-06T19:15:26.583Z,53.50
2023-01-06T19:17:55.391Z,78.10
2023-01-06T19:20:29.525Z,71.70
2023-01-06T19:22:58.255Z,46.28
2023-01-06T19:25:31.037Z,39.40
2023-01-06T19:28:03.252Z,40.20
2023-01-06T19:30:41.410Z,28.83
2023-01-06T19:33:34.917Z,37.25
2023-01-06T19:36:06.509Z,35.65
2023-01-06T19:38:42.888Z,44.78
2023-01-06T19:41:32.262Z,74.15
2023-01-06T19:44:06.705Z,55.92
2023-01-06T19:46:42.248Z,41.85
2023-01-06T19:49:16.929Z,39.88
2023-01-06T19:51:48.286Z,45.92
2023-01-06T19:54:25.992Z,42.75
2023-01-06T19:56:56.541Z,49.50
2023-01-06T19:59:29.481Z,67.70
2023-01-06T20:02:10.214Z,71.03
2023-01-06T20:04:39.513Z,77.13
2023-01-06T20:07:08.054Z,98.38
2023-01-06T20:09:36.509Z,100.93
2023-01-06T20:12:04.998Z,93.70
2023-01-06T20:14:33.642Z,94.65
2023-01-06T20:17:02.060Z,98.80
2023-01-06T20:19:30.677Z,91.85
2023-01-06T20:21:59.101Z,98.72
2023-01-06T20:24:27.599Z,83.40
2023-01-06T20:26:55.959Z,75.55
2023-01-06T20:29:24.566Z,84.78
2023-01-06T20:31:53.147Z,79.32
2023-01-06T20:34:21.632Z,73.32
2023-01-06T20:36:50.215Z,80.78
2023-01-06T20:39:18.776Z,89.53
2023-01-06T20:41:46.844Z,84.57
2023-01-06T20:44:15.403Z,75.93
2023-01-06T20:46:43.551Z,85.43
2023-01-06T20:49:13.639Z,69.32
2023-01-06T20:51:41.710Z,33.35
2023-01-06T20:54:10.191Z,89.65
2023-01-06T20:56:38.761Z,93.13
2023-01-06T20:59:07.220Z,86.10
2023-01-06T21:01:35.954Z,95.10
2023-01-06T21:04:04.875Z,79.57
2023-01-06T21:06:33.292Z,74.97
2023-01-06T21:09:01.685Z,101.97
2023-01-06T21:11:30.146Z,65.22
2023-01-06T21:13:58.503Z,108.80
2023-01-06T21:16:26.996Z,132.70
2023-01-06T21:18:55.806Z,99.03
2023-01-06T21:21:24.369Z,105.78
2023-01-06T21:23:52.717Z,94.93
2023-01-06T21:26:21.029Z,58.20
2023-01-06T21:28:49.342Z,67.55
2023-01-06T21:31:17.817Z,96.95
2023-01-06T21:33:46.475Z,81.60
2023-01-06T21:36:15.044Z,83.38
2023-01-06T21:38:43.317Z,80.60
2023-01-06T21:41:30.076Z,81.55
2023-01-06T21:43:58.539Z,64.55
2023-01-06T21:46:26.827Z,78.28
2023-01-06T21:48:55.021Z,76.82
2023-01-06T21:51:23.594Z,72.55
2023-01-06T21:53:52.337Z,75.03
2023-01-06T21:56:20.851Z,65.28
2023-01-06T21:58:49.293Z,65.32
2023-01-06T22:01:19.646Z,53.25
2023-01-06T22:03:48.286Z,73.28
2023-01-06T22:06:19.794Z,126.07
2023-01-06T22:08:51.537Z,126.35
2023-01-06T22:11:20.098Z,116.35
2023-01-06T22:13:48.557Z,115.80
2023-01-06T22:16:17.266Z,91.60
2023-01-06T22:18:45.906Z,91.85
2023-01-06T22:21:14.220Z,81.22
2023-01-06T22:23:44.146Z,67.60
2023-01-06T22:26:14.177Z,77.97
2023-01-06T22:28:42.387Z,83.05
2023-01-06T22:31:10.808Z,101.05
2023-01-06T22:33:39.122Z,72.15
2023-01-06T22:36:07.662Z,84.18
2023-01-06T22:38:35.775Z,90.20
2023-01-06T22:41:04.576Z,57.05
2023-01-06T22:43:32.716Z,53.33
2023-01-06T22:46:00.707Z,52.17
2023-01-06T22:48:28.846Z,52.55
2023-01-06T22:51:01.993Z,53.22
2023-01-06T22:53:31.520Z,59.03
2023-01-06T22:56:08.278Z,67.90
2023-01-06T22:58:39.706Z,68.10
2023-01-06T23:01:09.502Z,70.03
2023-01-06T23:03:38.279Z,83.15
2023-01-06T23:06:09.444Z,58.75
2023-01-06T23:08:48.056Z,49.72
2023-01-06T23:11:27.812Z,67.93
2023-01-06T23:13:57.954Z,47.75
2023-01-06T23:16:27.262Z,53.42
2023-01-06T23:18:55.224Z,70.15
2023-01-06T23:21:25.225Z,77.85
2023-01-06T23:23:54.145Z,67.20
2023-01-06T23:26:25.046Z,49.58
2023-01-06T23:28:54.311Z,50.65
2023-01-06T23:31:29.071Z,54.50
2023-01-06T23:34:00.395Z,36.75
2023-01-06T23:36:31.034Z,41.58
2023-01-06T23:39:00.520Z,37.55
2023-01-06T23:41:31.718Z,31.50
2023-01-06T23:44:00.811Z,35.40
2023-01-06T23:46:34.789Z,39.13
2023-01-06T23:49:03.938Z,43.20
2023-01-06T23:51:32.829Z,39.15
2023-01-06T23:54:02.336Z,39.22
2023-01-06T23:56:32.394Z,52.70
2023-01-06T23:59:02.285Z,40.88
